Airport View

Enter AWOS ICAO identifier for current METAR.

ex. KFNL

KOEO 192335Z AUTO 00000KT 10SM SCT043 SCT050 OVC110 00/M01 A3029 RMK AO2 T10021012 PWINO

19 Oct 2020 23:44

Frequency: 119.925

Phone: 715-294-3845

Other Area AWOS: KRNH - KROS - KSTP - KSGS

TAF AMD KRNH 192010Z 1920/2018 22004KT 3SM -SN BKN020 OVC040 TEMPO 1921/1923 2SM -SN BKN023 FM200100 13002KT P6SM OVC060 FM201500 13007KT P6SM -SN OVC060 FM201700 14009KT 3SM -SN BR OVC028